Dades meteomassalio
Diari Summary for Febrer 4, 2017 Units:  Metric    English   Both
« Previous Day
Next Day »
Diari Semanal Mensual Anual Personalitzat
  Maxima: Minima: Mijana:
Temperatura: 16.3 °C 7.7 °C 12.7 °C
Rosada: 11.2 °C 5.4 °C 8.3 °C
Humitat: 91 % 62 % 75 %
Velocitat del vent: 24.1 km/h 0.0 km/h 6 km/h
Racha vent: 24.1 km/h - -
Vent:- - West
Pressio: 1014.4 hPa 1010.4 hPa -
Pluja: 0.0 mm    
Historical Graphs
 
 
Tabular Data for Febrer 4, 2017
Time Temperature Dew Point Pressure Wind Wind Speed Wind Gust Humidity Rainfall Rate (Hourly) solar Conditions
00:04 8.2 °C 5.5 °C 1014.1 hPa Calm     83 % 0.0 mm 0.0 W/m2 RA
00:09 8.2 °C 5.6 °C 1014.1 hPa Calm     84 % 0.0 mm 0.0 W/m2 CLR
00:14 8.1 °C 5.5 °C 1014.1 hPa Calm     84 % 0.0 mm 0.0 W/m2 CLR
00:19 7.9 °C 5.6 °C 1014.1 hPa Calm     85 % 0.0 mm 0.0 W/m2 CLR
00:24 7.9 °C 5.5 °C 1013.8 hPa Calm     85 % 0.0 mm 0.0 W/m2 CLR
00:29 7.8 °C 5.4 °C 1013.8 hPa Calm     85 % 0.0 mm 0.0 W/m2 CLR
00:34 7.7 °C 5.5 °C 1013.8 hPa Calm     86 % 0.0 mm 0.0 W/m2 CLR
00:39 8.1 °C 5.7 °C 1013.4 hPa Calm     85 % 0.0 mm 0.0 W/m2 CLR
00:44 8.1 °C 5.7 °C 1013.4 hPa SSW 9.3 km/h 9.3 km/h 85 % 0.0 mm 0.0 W/m2 CLR
00:49 8.2 °C 5.7 °C 1013.1 hPa SSW 5.6 km/h 5.6 km/h 84 % 0.0 mm 0.0 W/m2 CLR
00:54 8.4 °C 5.7 °C 1013.1 hPa SW 8.0 km/h 8.0 km/h 83 % 0.0 mm 0.0 W/m2 CLR
00:59 9.2 °C 5.9 °C 1013.1 hPa SW 6.4 km/h 6.4 km/h 80 % 0.0 mm 0.0 W/m2 CLR
01:04 9.6 °C 5.8 °C 1013.1 hPa SW 7.4 km/h 7.4 km/h 77 % 0.0 mm 0.0 W/m2 CLR
01:09 9.7 °C 5.6 °C 1013.1 hPa Calm     76 % 0.0 mm 0.0 W/m2 CLR
01:14 9.3 °C 5.5 °C 1013.1 hPa WSW 11.1 km/h 11.1 km/h 77 % 0.0 mm 0.0 W/m2 CLR
01:19 9.3 °C 5.6 °C 1012.8 hPa SW 9.3 km/h 9.3 km/h 78 % 0.0 mm 0.0 W/m2 CLR
01:24 9.5 °C 5.7 °C 1012.8 hPa WSW 13.0 km/h 13.0 km/h 77 % 0.0 mm 0.0 W/m2 CLR
01:29 9.7 °C 5.7 °C 1012.8 hPa WSW 9.7 km/h 9.7 km/h 76 % 0.0 mm 0.0 W/m2 CLR
01:34 10.1 °C 5.9 °C 1012.8 hPa WSW 9.3 km/h 9.3 km/h 75 % 0.0 mm 0.0 W/m2 CLR
01:39 10.1 °C 5.7 °C 1012.4 hPa SW 13.0 km/h 13.0 km/h 74 % 0.0 mm 0.0 W/m2 CLR
01:44 10.2 °C 5.8 °C 1012.4 hPa WSW 9.7 km/h 9.7 km/h 74 % 0.0 mm 0.0 W/m2 CLR
01:49 10.1 °C 5.7 °C 1012.4 hPa WSW 6.4 km/h 6.4 km/h 74 % 0.0 mm 0.0 W/m2 CLR
01:54 10.2 °C 5.7 °C 1012.4 hPa WSW 13.0 km/h 13.0 km/h 74 % 0.0 mm 0.0 W/m2 CLR
01:59 10.6 °C 5.9 °C 1012.1 hPa SW 18.5 km/h 18.5 km/h 73 % 0.0 mm 0.0 W/m2 CLR
02:04 10.4 °C 5.6 °C 1012.1 hPa SW 11.3 km/h 11.3 km/h 72 % 0.0 mm 0.0 W/m2 CLR
02:09 10.1 °C 5.7 °C 1012.1 hPa WSW 7.4 km/h 7.4 km/h 74 % 0.0 mm 0.0 W/m2 CLR
02:14 10.2 °C 5.7 °C 1012.1 hPa WSW 7.4 km/h 7.4 km/h 74 % 0.0 mm 0.0 W/m2 CLR
02:19 10.6 °C 5.9 °C 1012.1 hPa WSW 11.3 km/h 11.3 km/h 73 % 0.0 mm 0.0 W/m2 CLR
02:24 10.8 °C 6.0 °C 1012.1 hPa WSW 13.0 km/h 13.0 km/h 72 % 0.0 mm 0.0 W/m2 CLR
02:29 11.1 °C 6.2 °C 1012.1 hPa WSW 16.7 km/h 16.7 km/h 72 % 0.0 mm 0.0 W/m2 CLR
02:34 11.2 °C 6.1 °C 1012.1 hPa WSW 13.0 km/h 13.0 km/h 71 % 0.0 mm 0.0 W/m2 CLR
02:39 11.2 °C 6.2 °C 1012.1 hPa WSW 13.0 km/h 13.0 km/h 71 % 0.0 mm 0.0 W/m2 CLR
02:44 11.4 °C 6.4 °C 1011.7 hPa WSW 11.1 km/h 11.1 km/h 71 % 0.0 mm 0.0 W/m2 CLR
02:49 11.6 °C 6.3 °C 1011.7 hPa WSW 14.8 km/h 14.8 km/h 70 % 0.0 mm 0.0 W/m2 CLR
02:54 11.5 °C 6.2 °C 1011.4 hPa WSW 13.0 km/h 13.0 km/h 70 % 0.0 mm 0.0 W/m2 CLR
02:59 11.6 °C 6.3 °C 1011.4 hPa WSW 9.3 km/h 9.3 km/h 70 % 0.0 mm 0.0 W/m2 CLR
03:04 11.5 °C 6.2 °C 1011.4 hPa Calm     70 % 0.0 mm 0.0 W/m2 CLR
03:09 11.3 °C 6.1 °C 1011.4 hPa WSW 5.6 km/h 5.6 km/h 70 % 0.0 mm 0.0 W/m2 CLR
03:14 10.4 °C 5.8 °C 1011.1 hPa SW 18.5 km/h 18.5 km/h 73 % 0.0 mm 0.0 W/m2 CLR
03:19 10.6 °C 6.2 °C 1011.4 hPa SW 13.0 km/h 13.0 km/h 74 % 0.0 mm 0.0 W/m2 CLR
03:24 11.2 °C 6.3 °C 1011.4 hPa WSW 14.8 km/h 14.8 km/h 72 % 0.0 mm 0.0 W/m2 CLR
03:29 11.5 °C 6.4 °C 1011.4 hPa WSW 5.6 km/h   71 % 0.0 mm 0.0 W/m2 CLR
03:34 11.7 °C 6.4 °C 1011.1 hPa WSW 3.2 km/h 3.2 km/h 70 % 0.0 mm 0.0 W/m2 CLR
03:39 11.0 °C 6.2 °C 1011.4 hPa Calm     72 % 0.0 mm 0.0 W/m2 CLR
03:45 10.8 °C 6.2 °C 1011.4 hPa West 5.6 km/h 5.6 km/h 73 % 0.0 mm 0.0 W/m2 CLR
03:50 10.8 °C 6.3 °C 1011.1 hPa Calm     74 % 0.0 mm 0.0 W/m2 CLR
03:55 11.6 °C 6.7 °C 1010.7 hPa WSW 9.3 km/h 9.3 km/h 72 % 0.0 mm 0.0 W/m2 CLR
04:00 12.8 °C 6.8 °C 1010.7 hPa West 18.5 km/h 18.5 km/h 67 % 0.0 mm 0.0 W/m2 CLR
04:05 13.0 °C 6.6 °C 1010.7 hPa WSW 7.4 km/h 8.5 km/h 65 % 0.0 mm 0.0 W/m2 CLR
04:10 13.1 °C 6.6 °C 1010.4 hPa Calm     65 % 0.0 mm 0.0 W/m2 CLR
04:15 13.1 °C 6.7 °C 1010.7 hPa Calm     65 % 0.0 mm 0.0 W/m2 CLR
04:20 12.9 °C 6.7 °C 1010.4 hPa Calm     66 % 0.0 mm 0.0 W/m2 CLR
04:25 12.4 °C 6.5 °C 1010.4 hPa Calm   1.4 km/h 67 % 0.0 mm 0.0 W/m2 CLR
04:30 12.3 °C 6.6 °C 1010.7 hPa West 11.1 km/h 11.1 km/h 68 % 0.0 mm 0.0 W/m2 CLR
04:35 12.6 °C 6.6 °C 1011.1 hPa West 9.3 km/h 9.3 km/h 67 % 0.0 mm 0.0 W/m2 CLR
04:40 12.4 °C 6.7 °C 1011.1 hPa Calm     68 % 0.0 mm 0.0 W/m2 CLR
04:45 12.1 °C 6.6 °C 1011.1 hPa Calm     69 % 0.0 mm 0.0 W/m2 CLR
04:50 11.5 °C 6.2 °C 1011.1 hPa Calm     70 % 0.0 mm 0.0 W/m2 CLR
04:55 11.0 °C 6.2 °C 1011.1 hPa Calm     72 % 0.0 mm 0.0 W/m2 CLR
05:00 10.4 °C 6.0 °C 1011.1 hPa East 5.6 km/h 5.6 km/h 74 % 0.0 mm 0.0 W/m2 CLR
05:05 10.3 °C 5.8 °C 1011.1 hPa Calm     74 % 0.0 mm 0.0 W/m2 CLR
05:10 10.2 °C 5.9 °C 1010.7 hPa Calm     75 % 0.0 mm 0.0 W/m2 CLR
05:15 10.3 °C 6.1 °C 1010.7 hPa Calm     75 % 0.0 mm 0.0 W/m2 CLR
05:20 10.4 °C 6.2 °C 1011.1 hPa South 1.9 km/h   75 % 0.0 mm 0.0 W/m2 CLR
05:25 10.5 °C 6.3 °C 1011.1 hPa West 1.6 km/h   75 % 0.0 mm 0.0 W/m2 CLR
05:30 11.4 °C 6.9 °C 1010.7 hPa West 16.7 km/h 16.7 km/h 74 % 0.0 mm 0.0 W/m2 CLR
05:35 13.1 °C 7.3 °C 1011.1 hPa West 13.0 km/h 13.0 km/h 68 % 0.0 mm 0.0 W/m2 CLR
05:40 14.0 °C 7.3 °C 1010.7 hPa WNW 14.5 km/h 14.5 km/h 64 % 0.0 mm 0.0 W/m2 CLR
05:45 14.3 °C 7.2 °C 1010.4 hPa West 19.3 km/h 19.3 km/h 62 % 0.0 mm 0.0 W/m2 CLR
05:50 14.5 °C 7.3 °C 1010.7 hPa West 20.4 km/h 20.4 km/h 62 % 0.0 mm 0.0 W/m2 CLR
05:55 14.3 °C 7.3 °C 1010.7 hPa WNW 14.8 km/h 14.8 km/h 63 % 0.0 mm 0.0 W/m2 CLR
06:00 14.2 °C 7.3 °C 1010.7 hPa WNW 16.7 km/h 16.7 km/h 63 % 0.0 mm 0.0 W/m2 CLR
06:05 14.3 °C 7.3 °C 1010.7 hPa WNW 13.0 km/h 13.0 km/h 63 % 0.0 mm 0.0 W/m2 CLR
06:10 14.3 °C 7.1 °C 1010.7 hPa NW 16.7 km/h 16.7 km/h 62 % 0.0 mm 0.0 W/m2 CLR
06:15 14.1 °C 7.2 °C 1010.7 hPa NW 16.7 km/h 16.7 km/h 63 % 0.0 mm 0.0 W/m2 CLR
06:20 14.3 °C 7.2 °C 1010.7 hPa NW 24.1 km/h 24.1 km/h 62 % 0.0 mm 0.0 W/m2 CLR
06:25 14.3 °C 7.4 °C 1010.7 hPa NW 9.3 km/h 9.3 km/h 63 % 0.0 mm 0.0 W/m2 CLR
06:30 14.1 °C 7.2 °C 1011.1 hPa NW 13.0 km/h 13.0 km/h 63 % 0.0 mm 0.0 W/m2 CLR
06:35 14.3 °C 7.2 °C 1010.7 hPa WNW 24.1 km/h 24.1 km/h 62 % 0.0 mm 0.0 W/m2 CLR
06:40 14.5 °C 7.3 °C 1010.7 hPa WNW 22.5 km/h 22.5 km/h 62 % 0.0 mm 0.0 W/m2 CLR
06:45 14.4 °C 7.4 °C 1010.7 hPa WNW 18.5 km/h 18.5 km/h 63 % 0.0 mm 0.0 W/m2 CLR
06:50 14.2 °C 7.3 °C 1010.7 hPa NW 14.8 km/h 14.8 km/h 63 % 0.0 mm 0.0 W/m2 CLR
06:55 14.1 °C 7.1 °C 1010.7 hPa NW 9.7 km/h 9.7 km/h 63 % 0.0 mm 0.0 W/m2 CLR
07:00 14.0 °C 7.3 °C 1011.1 hPa NW 8.0 km/h 8.0 km/h 64 % 0.0 mm 0.0 W/m2 CLR
07:05 13.9 °C 7.2 °C 1011.1 hPa NW 11.1 km/h 11.1 km/h 64 % 0.0 mm 0.0 W/m2 CLR
07:10 13.8 °C 7.1 °C 1011.1 hPa WNW 14.8 km/h 14.8 km/h 64 % 0.0 mm 0.0 W/m2 CLR
07:15 13.9 °C 7.2 °C 1011.1 hPa WNW 13.0 km/h 13.0 km/h 64 % 0.0 mm 0.0 W/m2 CLR
07:20 13.7 °C 7.0 °C 1011.4 hPa NW 13.0 km/h 13.0 km/h 64 % 0.0 mm 0.0 W/m2 CLR
07:25 13.8 °C 7.1 °C 1011.4 hPa NNW 7.4 km/h 7.4 km/h 64 % 0.0 mm 0.0 W/m2 CLR
07:30 13.7 °C 7.1 °C 1011.4 hPa NW 7.4 km/h 7.4 km/h 64 % 0.0 mm 0.0 W/m2 CLR
07:35 13.7 °C 7.1 °C 1011.4 hPa NW 9.3 km/h 9.3 km/h 64 % 0.0 mm 0.0 W/m2 CLR
07:40 13.6 °C 7.2 °C 1011.4 hPa WNW 11.1 km/h 11.1 km/h 65 % 0.0 mm 0.0 W/m2 CLR
07:45 13.8 °C 7.1 °C 1011.4 hPa WNW 18.5 km/h 18.5 km/h 64 % 0.0 mm 0.0 W/m2 CLR
07:50 13.9 °C 7.2 °C 1011.7 hPa WNW 8.0 km/h 8.0 km/h 64 % 0.0 mm 0.0 W/m2 CLR
07:55 13.8 °C 7.1 °C 1011.7 hPa NW 1.9 km/h   64 % 0.0 mm 0.0 W/m2 CLR
08:00 13.8 °C 7.1 °C 1012.1 hPa NNW 11.1 km/h 11.1 km/h 64 % 0.0 mm 0.0 W/m2 OVC
08:06 13.7 °C 7.2 °C 1012.1 hPa NW 8.0 km/h 8.0 km/h 65 % 0.0 mm 0.0 W/m2 OVC
08:11 13.7 °C 7.2 °C 1012.1 hPa WNW 16.7 km/h 16.7 km/h 65 % 0.0 mm 0.0 W/m2 OVC
08:16 13.7 °C 7.2 °C 1012.1 hPa WNW 11.1 km/h 11.1 km/h 65 % 0.0 mm 7.0 W/m2 BKN
08:21 13.7 °C 7.4 °C 1012.4 hPa WNW 5.6 km/h 5.6 km/h 66 % 0.0 mm 12.0 W/m2 BKN
08:26 13.6 °C 7.4 °C 1012.4 hPa WNW 11.1 km/h 11.1 km/h 66 % 0.0 mm 21.0 W/m2 BKN
08:31 13.8 °C 7.6 °C 1012.4 hPa WNW 22.2 km/h 22.2 km/h 66 % 0.0 mm 28.0 W/m2 BKN
08:36 14.1 °C 7.6 °C 1012.4 hPa WNW 11.1 km/h 11.1 km/h 65 % 0.0 mm 40.0 W/m2 BKN
08:41 14.1 °C 7.6 °C 1012.8 hPa WNW 9.3 km/h 9.3 km/h 65 % 0.0 mm 54.0 W/m2 SCT
08:46 14.0 °C 7.7 °C 1012.4 hPa WNW 8.0 km/h 8.0 km/h 66 % 0.0 mm 67.0 W/m2 FEW
08:51 13.9 °C 7.8 °C 1012.8 hPa WNW 9.3 km/h 9.3 km/h 67 % 0.0 mm 76.0 W/m2 FEW
08:56 13.8 °C 7.8 °C 1013.1 hPa NW 5.6 km/h 5.6 km/h 67 % 0.0 mm 105.0 W/m2 CLR
09:01 14.1 °C 7.8 °C 1013.1 hPa Calm     66 % 0.0 mm 123.0 W/m2 CLR
09:06 14.2 °C 7.9 °C 1012.8 hPa Calm     66 % 0.0 mm 144.0 W/m2 CLR
09:11 14.4 °C 7.9 °C 1012.8 hPa WNW 5.6 km/h   65 % 0.0 mm 165.0 W/m2 CLR
09:16 14.7 °C 8.0 °C 1012.8 hPa West 8.0 km/h 8.0 km/h 64 % 0.0 mm 116.0 W/m2 CLR
09:21 14.9 °C 7.9 °C 1012.8 hPa West 16.7 km/h 16.7 km/h 63 % 0.0 mm 128.0 W/m2 CLR
09:26 15.1 °C 7.8 °C 1012.8 hPa West 16.7 km/h 16.7 km/h 62 % 0.0 mm 118.0 W/m2 CLR
09:31 15.0 °C 8.0 °C 1013.4 hPa WNW 22.2 km/h 22.2 km/h 63 % 0.0 mm 90.0 W/m2 CLR
09:32 14.9 °C 7.9 °C 1013.1 hPa WNW 20.4 km/h 20.4 km/h 63 % 0.0 mm 95.0 W/m2 CLR
09:37 14.8 °C 7.8 °C 1013.1 hPa WNW 13.0 km/h 13.0 km/h 63 % 0.0 mm 42.0 W/m2 FEW
09:42 14.8 °C 8.1 °C 1013.1 hPa West 9.3 km/h 9.3 km/h 64 % 0.0 mm 174.0 W/m2 SCT
09:47 14.9 °C 8.2 °C 1013.4 hPa WNW 22.2 km/h 22.2 km/h 64 % 0.0 mm 186.0 W/m2 FEW
09:52 15.1 °C 8.3 °C 1013.4 hPa NW 11.1 km/h 11.1 km/h 64 % 0.0 mm 230.0 W/m2 CLR
09:57 15.3 °C 8.3 °C 1013.4 hPa NW 11.1 km/h 11.1 km/h 63 % 0.0 mm 250.0 W/m2 CLR
10:02 15.6 °C 8.6 °C 1013.4 hPa NW 18.5 km/h 18.5 km/h 63 % 0.0 mm 269.0 W/m2 CLR
10:07 15.7 °C 8.7 °C 1013.8 hPa NW 16.7 km/h 16.7 km/h 63 % 0.0 mm 292.0 W/m2 CLR
10:12 15.8 °C 8.6 °C 1013.8 hPa NW 11.1 km/h 11.1 km/h 62 % 0.0 mm 350.0 W/m2 CLR
10:17 15.9 °C 8.9 °C 1013.8 hPa NNW 19.3 km/h 19.3 km/h 63 % 0.0 mm 359.0 W/m2 CLR
10:22 15.8 °C 8.8 °C 1013.8 hPa NNW 11.1 km/h 11.1 km/h 63 % 0.0 mm 308.0 W/m2 CLR
10:27 15.8 °C 8.8 °C 1013.8 hPa NNW 13.0 km/h 13.0 km/h 63 % 0.0 mm 346.0 W/m2 CLR
10:32 15.9 °C 8.9 °C 1013.8 hPa NNW 14.8 km/h 14.8 km/h 63 % 0.0 mm 202.0 W/m2 CLR
10:37 16.0 °C 8.9 °C 1013.8 hPa NNW 11.1 km/h 11.1 km/h 63 % 0.0 mm 336.0 W/m2 CLR
10:42 16.0 °C 9.2 °C 1014.1 hPa NNW 7.4 km/h 7.4 km/h 64 % 0.0 mm 148.0 W/m2 CLR
10:47 15.9 °C 8.9 °C 1014.1 hPa NNW 5.6 km/h 5.6 km/h 63 % 0.0 mm 174.0 W/m2 CLR
10:52 15.9 °C 9.1 °C 1014.1 hPa NNW 11.3 km/h 11.3 km/h 64 % 0.0 mm 260.0 W/m2 CLR
10:57 15.9 °C 9.4 °C 1014.1 hPa North 8.0 km/h 8.0 km/h 65 % 0.0 mm 221.0 W/m2 CLR
11:02 16.1 °C 9.8 °C 1014.1 hPa North 1.6 km/h   66 % 0.0 mm 229.0 W/m2 CLR
11:07 16.3 °C 9.4 °C 1014.1 hPa NNW 14.8 km/h 14.8 km/h 64 % 0.0 mm 241.0 W/m2 CLR
11:12 16.2 °C 9.4 °C 1014.1 hPa NNW 18.5 km/h 18.5 km/h 64 % 0.0 mm 265.0 W/m2 CLR
11:17 16.2 °C 9.6 °C 1014.1 hPa NNW 16.7 km/h 16.7 km/h 65 % 0.0 mm 302.0 W/m2 CLR
11:22 16.2 °C 9.6 °C 1014.1 hPa NNW 9.3 km/h 9.3 km/h 65 % 0.0 mm 192.0 W/m2 CLR
11:27 16.2 °C 9.3 °C 1014.1 hPa NNW 13.0 km/h 13.0 km/h 64 % 0.0 mm 225.0 W/m2 CLR
11:32 16.1 °C 9.3 °C 1014.1 hPa North 9.3 km/h 9.3 km/h 64 % 0.0 mm 171.0 W/m2 CLR
11:37 16.1 °C 9.7 °C 1014.1 hPa North 11.1 km/h 11.1 km/h 66 % 0.0 mm 174.0 W/m2 CLR
11:42 16.0 °C 9.4 °C 1014.1 hPa NNW 14.8 km/h 14.8 km/h 65 % 0.0 mm 264.0 W/m2 CLR
11:47 16.1 °C 10.0 °C 1014.1 hPa NNW 5.6 km/h 5.6 km/h 67 % 0.0 mm 264.0 W/m2 CLR
11:52 16.2 °C 9.6 °C 1014.1 hPa NNW 13.0 km/h 13.0 km/h 65 % 0.0 mm 176.0 W/m2 CLR
11:54 16.2 °C 9.3 °C 1014.1 hPa North 7.4 km/h 7.4 km/h 64 % 0.0 mm 176.0 W/m2 CLR
11:59 16.2 °C 9.6 °C 1014.1 hPa NNW 9.3 km/h 9.3 km/h 65 % 0.0 mm 156.0 W/m2 CLR
12:04 16.2 °C 9.6 °C 1014.1 hPa NNW 11.3 km/h 11.3 km/h 65 % 0.0 mm 139.0 W/m2 CLR
12:09 16.1 °C 9.5 °C 1014.4 hPa NNW 18.5 km/h 18.5 km/h 65 % 0.0 mm 169.0 W/m2 CLR
12:14 16.1 °C 9.5 °C 1014.4 hPa NNW 18.5 km/h 18.5 km/h 65 % 0.0 mm 81.0 W/m2 CLR
12:19 15.9 °C 9.6 °C 1014.4 hPa NNW 18.5 km/h 18.5 km/h 66 % 0.0 mm 84.0 W/m2 CLR
12:24 15.6 °C 9.7 °C 1014.4 hPa North 17.7 km/h 17.7 km/h 68 % 0.0 mm 88.0 W/m2 CLR
12:29 15.3 °C 9.6 °C 1014.4 hPa North 24.1 km/h 24.1 km/h 69 % 0.0 mm 132.0 W/m2 CLR
12:34 14.9 °C 9.9 °C 1014.4 hPa North 18.5 km/h 18.5 km/h 72 % 0.0 mm 200.0 W/m2 CLR
12:39 14.8 °C 10.0 °C 1014.1 hPa North 16.7 km/h 16.7 km/h 73 % 0.0 mm 237.0 W/m2 CLR
12:45 14.7 °C 10.1 °C 1014.1 hPa North 22.2 km/h 22.2 km/h 74 % 0.0 mm 258.0 W/m2 CLR
12:50 14.7 °C 10.3 °C 1014.1 hPa North 18.5 km/h 18.5 km/h 75 % 0.0 mm 220.0 W/m2 CLR
12:55 14.7 °C 10.5 °C 1014.1 hPa NNE 18.5 km/h 18.5 km/h 76 % 0.0 mm 232.0 W/m2 CLR
13:00 14.3 °C 10.7 °C 1013.8 hPa NNE 14.5 km/h 14.5 km/h 79 % 0.0 mm 213.0 W/m2 CLR
13:05 14.1 °C 10.7 °C 1013.8 hPa NE 20.4 km/h 20.4 km/h 80 % 0.0 mm 251.0 W/m2 CLR
13:10 14.0 °C 10.8 °C 1014.1 hPa NNE 16.7 km/h 16.7 km/h 81 % 0.0 mm 318.0 W/m2 CLR
13:15 14.0 °C 10.8 °C 1013.8 hPa NNE 5.6 km/h 5.6 km/h 81 % 0.0 mm 406.0 W/m2 CLR
13:20 14.2 °C 10.9 °C 1013.8 hPa North 5.6 km/h 5.6 km/h 81 % 0.0 mm 366.0 W/m2 CLR
13:25 14.3 °C 11.1 °C 1013.8 hPa Calm     81 % 0.0 mm 241.0 W/m2 CLR
13:30 14.3 °C 10.9 °C 1013.4 hPa Calm     80 % 0.0 mm 302.0 W/m2 CLR
13:35 14.4 °C 10.8 °C 1013.4 hPa Calm     79 % 0.0 mm 174.0 W/m2 CLR
13:40 14.3 °C 10.6 °C 1013.4 hPa North 5.6 km/h 5.6 km/h 78 % 0.0 mm 216.0 W/m2 CLR
13:45 14.3 °C 10.7 °C 1013.4 hPa Calm     79 % 0.0 mm 213.0 W/m2 CLR
13:50 14.4 °C 10.8 °C 1013.4 hPa Calm     79 % 0.0 mm 260.0 W/m2 CLR
13:55 14.6 °C 10.9 °C 1013.4 hPa Calm     79 % 0.0 mm 359.0 W/m2 CLR
14:00 14.7 °C 11.1 °C 1013.4 hPa Calm     79 % 0.0 mm 309.0 W/m2 CLR
14:05 14.9 °C 11.1 °C 1013.4 hPa Calm     78 % 0.0 mm 443.0 W/m2 CLR
14:10 15.0 °C 11.2 °C 1013.1 hPa Calm     78 % 0.0 mm 362.0 W/m2 CLR
14:15 15.2 °C 11.2 °C 1013.1 hPa Calm     77 % 0.0 mm 362.0 W/m2 CLR
14:20 15.2 °C 11.0 °C 1013.1 hPa Calm     76 % 0.0 mm 265.0 W/m2 CLR
14:25 15.1 °C 10.7 °C 1013.1 hPa Calm     75 % 0.0 mm 232.0 W/m2 CLR
14:30 15.1 °C 10.9 °C 1012.8 hPa Calm     76 % 0.0 mm 255.0 W/m2 CLR
14:35 15.1 °C 10.7 °C 1013.1 hPa Calm     75 % 0.0 mm 295.0 W/m2 CLR
14:36 15.1 °C 10.8 °C 1013.1 hPa Calm     76 % 0.0 mm 279.0 W/m2 CLR
14:41 15.1 °C 10.7 °C 1013.1 hPa NNE 5.6 km/h 5.6 km/h 75 % 0.0 mm 239.0 W/m2 CLR
14:46 15.1 °C 10.7 °C 1013.1 hPa Calm     75 % 0.0 mm 202.0 W/m2 CLR
14:51 15.1 °C 10.7 °C 1013.1 hPa Calm     75 % 0.0 mm 202.0 W/m2 CLR
14:56 15.0 °C 10.4 °C 1013.1 hPa Calm     74 % 0.0 mm 174.0 W/m2 CLR
15:01 15.0 °C 10.6 °C 1013.1 hPa Calm     75 % 0.0 mm 178.0 W/m2 CLR
15:06 15.0 °C 10.6 °C 1013.1 hPa Calm     75 % 0.0 mm 148.0 W/m2 CLR
15:11 15.0 °C 10.6 °C 1013.1 hPa Calm     75 % 0.0 mm 113.0 W/m2 CLR
15:16 14.9 °C 10.5 °C 1013.1 hPa NE 5.6 km/h 5.6 km/h 75 % 0.0 mm 93.0 W/m2 CLR
15:18 14.8 °C 10.4 °C 1013.1 hPa NE 5.6 km/h 5.6 km/h 75 % 0.0 mm 88.0 W/m2 CLR
15:23 14.7 °C 10.3 °C 1013.1 hPa Calm     75 % 0.0 mm 77.0 W/m2 CLR
15:28 14.6 °C 10.4 °C 1013.4 hPa NE 5.6 km/h 5.6 km/h 76 % 0.0 mm 47.0 W/m2 FEW
15:33 14.4 °C 10.2 °C 1013.4 hPa Calm     76 % 0.0 mm 40.0 W/m2 SCT
15:38 14.3 °C 10.3 °C 1013.8 hPa Calm     77 % 0.0 mm 35.0 W/m2 BKN
15:43 14.2 °C 10.4 °C 1013.8 hPa Calm     78 % 0.0 mm 32.0 W/m2 BKN
15:48 14.1 °C 10.3 °C 1013.8 hPa Calm     78 % 0.0 mm 30.0 W/m2 BKN
15:53 14.1 °C 10.1 °C 1013.4 hPa Calm     77 % 0.0 mm 47.0 W/m2 BKN
15:58 14.1 °C 10.1 °C 1013.8 hPa Calm     77 % 0.0 mm 46.0 W/m2 BKN
16:03 14.1 °C 10.3 °C 1013.8 hPa Calm     78 % 0.0 mm 46.0 W/m2 BKN
16:08 14.0 °C 10.2 °C 1013.4 hPa Calm     78 % 0.0 mm 58.0 W/m2 SCT
16:13 14.0 °C 10.2 °C 1013.4 hPa Calm     78 % 0.0 mm 95.0 W/m2 SCT
16:18 14.0 °C 10.2 °C 1013.4 hPa Calm     78 % 0.0 mm 88.0 W/m2 FEW
16:23 14.1 °C 10.4 °C 1013.4 hPa Calm     79 % 0.0 mm 63.0 W/m2 FEW
16:28 14.1 °C 10.3 °C 1013.4 hPa Calm     78 % 0.0 mm 142.0 W/m2 FEW
16:31 14.1 °C 10.3 °C 1013.4 hPa Calm     78 % 0.0 mm 172.0 W/m2 CLR
16:36 14.2 °C 10.4 °C 1013.1 hPa Calm     78 % 0.0 mm 165.0 W/m2 CLR
16:41 14.3 °C 10.3 °C 1013.1 hPa Calm     77 % 0.0 mm 193.0 W/m2 CLR
16:46 14.4 °C 10.4 °C 1013.1 hPa Calm     77 % 0.0 mm 167.0 W/m2 CLR
16:51 14.4 °C 10.2 °C 1013.1 hPa ENE 3.2 km/h 3.2 km/h 76 % 0.0 mm 153.0 W/m2 CLR
16:56 14.3 °C 10.2 °C 1013.1 hPa Calm     76 % 0.0 mm 167.0 W/m2 CLR
17:01 14.3 °C 10.2 °C 1013.1 hPa Calm     76 % 0.0 mm 107.0 W/m2 CLR
17:06 14.3 °C 10.1 °C 1013.1 hPa Calm     76 % 0.0 mm 91.0 W/m2 CLR
17:11 14.2 °C 10.0 °C 1013.1 hPa Calm     76 % 0.0 mm 77.0 W/m2 CLR
17:16 14.1 °C 10.1 °C 1013.1 hPa Calm     77 % 0.0 mm 63.0 W/m2 FEW
17:21 14.0 °C 10.1 °C 1013.1 hPa Calm     77 % 0.0 mm 63.0 W/m2 SCT
17:26 13.9 °C 10.0 °C 1012.8 hPa Calm     77 % 0.0 mm 53.0 W/m2 SCT
17:31 13.8 °C 9.9 °C 1012.8 hPa Calm     77 % 0.0 mm 46.0 W/m2 SCT
17:36 13.8 °C 9.8 °C 1012.8 hPa Calm     77 % 0.0 mm 37.0 W/m2 BKN
17:41 13.7 °C 9.8 °C 1012.8 hPa Calm     77 % 0.0 mm 33.0 W/m2 BKN
17:46 13.7 °C 9.9 °C 1012.8 hPa Calm     78 % 0.0 mm 28.0 W/m2 BKN
17:51 13.6 °C 9.8 °C 1012.8 hPa Calm     78 % 0.0 mm 26.0 W/m2 BKN
17:56 13.4 °C 9.9 °C 1012.8 hPa Calm     79 % 0.0 mm 23.0 W/m2 BKN
18:01 13.4 °C 9.8 °C 1012.8 hPa Calm     79 % 0.0 mm 16.0 W/m2 BKN
18:06 13.2 °C 9.7 °C 1013.1 hPa Calm     79 % 0.0 mm 11.0 W/m2 BKN
18:11 13.1 °C 9.7 °C 1013.1 hPa Calm     80 % 0.0 mm 7.0 W/m2 BKN
18:16 13.1 °C 9.7 °C 1013.1 hPa Calm     80 % 0.0 mm 0.0 W/m2 OVC
18:21 12.9 °C 9.5 °C 1013.1 hPa Calm     80 % 0.0 mm 0.0 W/m2 OVC
18:26 12.8 °C 9.7 °C 1013.1 hPa Calm     81 % 0.0 mm 0.0 W/m2 OVC
18:32 12.7 °C 9.6 °C 1013.1 hPa Calm     81 % 0.0 mm 0.0 W/m2 CLR
18:37 12.7 °C 9.7 °C 1013.1 hPa Calm     82 % 0.0 mm 0.0 W/m2 CLR
18:42 12.6 °C 9.6 °C 1013.1 hPa Calm     82 % 0.0 mm 0.0 W/m2 CLR
18:47 12.5 °C 9.5 °C 1013.1 hPa Calm     82 % 0.0 mm 0.0 W/m2 CLR
18:52 12.4 °C 9.6 °C 1013.1 hPa Calm     83 % 0.0 mm 0.0 W/m2 CLR
18:57 12.3 °C 9.5 °C 1013.1 hPa Calm     83 % 0.0 mm 0.0 W/m2 CLR
19:02 12.2 °C 9.6 °C 1012.8 hPa Calm     84 % 0.0 mm 0.0 W/m2 CLR
19:07 12.1 °C 9.5 °C 1013.1 hPa Calm     84 % 0.0 mm 0.0 W/m2 CLR
19:12 11.9 °C 9.3 °C 1012.8 hPa Calm     84 % 0.0 mm 0.0 W/m2 CLR
19:17 11.7 °C 9.3 °C 1012.8 hPa Calm     85 % 0.0 mm 0.0 W/m2 CLR
19:22 11.5 °C 9.1 °C 1012.8 hPa Calm     85 % 0.0 mm 0.0 W/m2 CLR
19:27 11.4 °C 9.1 °C 1012.8 hPa Calm     86 % 0.0 mm 0.0 W/m2 CLR
19:32 11.2 °C 8.9 °C 1012.8 hPa Calm     86 % 0.0 mm 0.0 W/m2 CLR
19:37 11.1 °C 9.1 °C 1012.8 hPa Calm     87 % 0.0 mm 0.0 W/m2 CLR
19:42 11.0 °C 8.9 °C 1012.8 hPa Calm     87 % 0.0 mm 0.0 W/m2 CLR
19:47 10.8 °C 8.7 °C 1012.8 hPa Calm     87 % 0.0 mm 0.0 W/m2 CLR
19:52 10.7 °C 8.7 °C 1012.4 hPa Calm     87 % 0.0 mm 0.0 W/m2 CLR
19:57 10.6 °C 8.7 °C 1012.4 hPa Calm     88 % 0.0 mm 0.0 W/m2 CLR
20:02 10.4 °C 8.6 °C 1012.4 hPa Calm     88 % 0.0 mm 0.0 W/m2 CLR
20:07 10.3 °C 8.4 °C 1012.4 hPa Calm     88 % 0.0 mm 0.0 W/m2 CLR
20:12 10.2 °C 8.3 °C 1012.4 hPa Calm     88 % 0.0 mm 0.0 W/m2 CLR
20:17 10.2 °C 8.5 °C 1012.4 hPa Calm     89 % 0.0 mm 0.0 W/m2 CLR
20:22 10.1 °C 8.4 °C 1012.4 hPa Calm     89 % 0.0 mm 0.0 W/m2 CLR
20:27 10.0 °C 8.3 °C 1012.4 hPa Calm     89 % 0.0 mm 0.0 W/m2 CLR
20:32 10.3 °C 8.7 °C 1012.4 hPa WSW 6.4 km/h 6.4 km/h 90 % 0.0 mm 0.0 W/m2 CLR
20:37 10.4 °C 8.9 °C 1012.4 hPa Calm     90 % 0.0 mm 0.0 W/m2 CLR
20:42 10.4 °C 8.7 °C 1012.4 hPa Calm     89 % 0.0 mm 0.0 W/m2 CLR
20:47 10.4 °C 8.7 °C 1012.4 hPa Calm     89 % 0.0 mm 0.0 W/m2 CLR
20:52 10.3 °C 8.6 °C 1012.1 hPa Calm     89 % 0.0 mm 0.0 W/m2 CLR
20:57 10.3 °C 8.4 °C 1012.1 hPa Calm     88 % 0.0 mm 0.0 W/m2 CLR
21:02 10.2 °C 8.4 °C 1012.1 hPa Calm     89 % 0.0 mm 0.0 W/m2 CLR
21:07 10.2 °C 8.4 °C 1012.1 hPa Calm     89 % 0.0 mm 0.0 W/m2 CLR
21:12 10.0 °C 8.3 °C 1012.1 hPa Calm     89 % 0.0 mm 0.0 W/m2 CLR
21:17 10.2 °C 8.7 °C 1012.1 hPa WSW 5.6 km/h   90 % 0.0 mm 0.0 W/m2 CLR
21:22 10.4 °C 8.9 °C 1011.7 hPa Calm     90 % 0.0 mm 0.0 W/m2 CLR
21:27 10.6 °C 8.8 °C 1011.7 hPa Calm     89 % 0.0 mm 0.0 W/m2 CLR
21:32 10.7 °C 8.9 °C 1011.7 hPa Calm     89 % 0.0 mm 0.0 W/m2 CLR
21:37 10.6 °C 8.7 °C 1011.7 hPa Calm     88 % 0.0 mm 0.0 W/m2 CLR
21:42 10.6 °C 8.7 °C 1011.7 hPa Calm     88 % 0.0 mm 0.0 W/m2 CLR
21:47 10.4 °C 8.5 °C 1011.7 hPa Calm     88 % 0.0 mm 0.0 W/m2 CLR
21:52 10.2 °C 8.3 °C 1011.4 hPa Calm     88 % 0.0 mm 0.0 W/m2 CLR
21:57 9.9 °C 8.1 °C 1011.4 hPa Calm     88 % 0.0 mm 0.0 W/m2 CLR
22:02 9.9 °C 8.2 °C 1011.7 hPa Calm     89 % 0.0 mm 0.0 W/m2 CLR
22:07 9.9 °C 8.2 °C 1011.7 hPa Calm     89 % 0.0 mm 0.0 W/m2 CLR
22:12 9.7 °C 8.0 °C 1011.4 hPa Calm     89 % 0.0 mm 0.0 W/m2 CLR
22:17 9.6 °C 7.8 °C 1011.4 hPa Calm     89 % 0.0 mm 0.0 W/m2 CLR
22:22 9.6 °C 8.1 °C 1011.4 hPa Calm     90 % 0.0 mm 0.0 W/m2 CLR
22:27 9.8 °C 8.2 °C 1011.4 hPa Calm     90 % 0.0 mm 0.0 W/m2 CLR
22:32 9.8 °C 8.1 °C 1011.4 hPa Calm     89 % 0.0 mm 0.0 W/m2 CLR
22:37 9.6 °C 7.8 °C 1011.4 hPa Calm     89 % 0.0 mm 0.0 W/m2 CLR
22:42 9.8 °C 8.2 °C 1011.4 hPa Calm     90 % 0.0 mm 0.0 W/m2 CLR
22:47 10.1 °C 8.3 °C 1011.4 hPa Calm     89 % 0.0 mm 0.0 W/m2 CLR
22:52 10.0 °C 7.9 °C 1011.4 hPa Calm     87 % 0.0 mm 0.0 W/m2 CLR
22:57 9.8 °C 7.7 °C 1011.4 hPa Calm     87 % 0.0 mm 0.0 W/m2 CLR
23:02 9.7 °C 7.8 °C 1011.4 hPa Calm     88 % 0.0 mm 0.0 W/m2 CLR
23:07 9.6 °C 7.7 °C 1011.1 hPa Calm     88 % 0.0 mm 0.0 W/m2 CLR
23:12 9.4 °C 7.6 °C 1011.1 hPa Calm     88 % 0.0 mm 0.0 W/m2 CLR
23:17 9.3 °C 7.6 °C 1011.1 hPa Calm     89 % 0.0 mm 0.0 W/m2 CLR
23:22 9.2 °C 7.4 °C 1011.1 hPa Calm     89 % 0.0 mm 0.0 W/m2 CLR
23:27 9.1 °C 7.5 °C 1011.1 hPa Calm     90 % 0.0 mm 0.0 W/m2 CLR
23:32 8.9 °C 7.3 °C 1010.7 hPa Calm     90 % 0.0 mm 0.0 W/m2 CLR
23:37 8.8 °C 7.3 °C 1010.7 hPa Calm     90 % 0.0 mm 0.0 W/m2 CLR
23:42 8.8 °C 7.2 °C 1010.7 hPa Calm     90 % 0.0 mm 0.0 W/m2 CLR
23:48 8.7 °C 7.1 °C 1010.7 hPa Calm     90 % 0.0 mm 0.0 W/m2 CLR
23:53 8.6 °C 7.2 °C 1010.7 hPa Calm     91 % 0.0 mm 0.0 W/m2 CLR
23:58 8.6 °C 7.2 °C 1010.7 hPa Calm     91 % 0.0 mm 0.0 W/m2 CLR
Lo Temps de Massalio
Compliments of Weather Underground - 1.25 mb